createdAt,value
2024-04-16T04:47:47.459Z,92.25
2024-04-16T04:50:15.206Z,92.67
2024-04-16T04:52:42.624Z,92.77
2024-04-16T04:55:10.229Z,92.91
2024-04-16T04:57:37.839Z,92.42
2024-04-16T05:00:05.645Z,92.42
2024-04-16T05:02:33.161Z,91.88
2024-04-16T05:05:00.735Z,91.71
2024-04-16T05:07:28.141Z,91.40
2024-04-16T05:09:55.834Z,91.45
2024-04-16T05:12:23.960Z,91.04
2024-04-16T05:14:51.882Z,90.39
2024-04-16T05:17:19.348Z,89.96
2024-04-16T05:19:47.097Z,89.86
2024-04-16T05:22:14.693Z,89.84
2024-04-16T05:24:42.530Z,90.16
2024-04-16T05:27:10.521Z,89.55
2024-04-16T05:29:38.290Z,88.72
2024-04-16T05:32:06.166Z,88.48
2024-04-16T05:34:34.021Z,88.79
2024-04-16T05:37:01.620Z,88.68
2024-04-16T05:39:29.393Z,88.42
2024-04-16T05:41:57.166Z,87.54
2024-04-16T05:44:24.842Z,86.91
2024-04-16T05:46:52.457Z,85.81
2024-04-16T05:49:20.638Z,85.19
2024-04-16T05:51:48.252Z,85.07
2024-04-16T05:54:15.986Z,84.03
2024-04-16T05:56:43.615Z,83.94
2024-04-16T05:59:11.277Z,83.17
2024-04-16T06:01:38.919Z,82.80
2024-04-16T06:04:06.916Z,82.39
2024-04-16T06:06:34.653Z,82.16
2024-04-16T06:09:02.418Z,81.87
2024-04-16T06:11:31.518Z,81.58
2024-04-16T06:14:02.292Z,80.96
2024-04-16T06:16:30.099Z,80.56
2024-04-16T06:18:57.774Z,79.93
2024-04-16T06:21:25.532Z,80.12
2024-04-16T06:23:53.121Z,79.18
2024-04-16T06:26:20.881Z,78.77
2024-04-16T06:28:48.620Z,79.12
2024-04-16T06:31:17.365Z,78.56
2024-04-16T06:33:45.317Z,77.87
2024-04-16T06:36:12.990Z,77.02
2024-04-16T06:38:40.707Z,76.66
2024-04-16T06:41:08.466Z,76.14
2024-04-16T06:43:36.211Z,75.61
2024-04-16T06:46:04.188Z,75.01
2024-04-16T06:48:35.691Z,74.82
2024-04-16T06:51:03.591Z,74.42
2024-04-16T06:53:31.266Z,73.87
2024-04-16T06:56:03.164Z,73.10
2024-04-16T06:58:31.042Z,73.56
